Time;durP1;ratioP1;P1;durP2;ratioP2;P2;SDS_P1;SDS_P2;PMS_P1;PMS_P2;Temp;Humidity;BMP_temperature;BMP_pressure;BME280_temperature;BME280_humidity;BME280_pressure;Samples;Min_cycle;Max_cycle;Signal;HPM_P1;HPM_P2
2023/09/24 00:02:11;;;;;;;24.10;15.60;;;;;;;25.75;43.99;100404.82;108288;1251;70066;-66
2023/09/24 00:04:38;;;;;;;36.10;14.90;;;;;;;25.56;44.52;100405.95;108268;1251;71202;-66
2023/09/24 00:07:05;;;;;;;25.80;14.60;;;;;;;25.43;45.20;100405.03;108304;1251;61919;-68
2023/09/24 00:09:32;;;;;;;25.90;14.70;;;;;;;25.43;44.88;100404.70;108303;1251;60514;-66
2023/09/24 00:11:58;;;;;;;23.50;13.40;;;;;;;25.50;44.81;100403.79;108235;1251;60437;-66
2023/09/24 00:14:26;;;;;;;27.40;14.90;;;;;;;25.39;44.95;100406.14;108272;1251;70575;-67
2023/09/24 00:16:53;;;;;;;24.50;15.50;;;;;;;25.41;44.60;100404.28;108346;1251;72465;-67
2023/09/24 00:19:19;;;;;;;27.30;14.80;;;;;;;25.51;44.73;100407.30;108349;1251;61921;-66
2023/09/24 00:21:46;;;;;;;30.20;15.20;;;;;;;25.47;44.86;100409.80;108337;1251;60426;-67
2023/09/24 00:24:17;;;;;;;24.00;14.70;;;;;;;25.35;44.98;100412.77;108355;1255;74113;-67
2023/09/24 00:26:45;;;;;;;23.70;14.50;;;;;;;25.45;44.81;100418.27;108337;1251;69815;-67
2023/09/24 00:29:12;;;;;;;21.90;14.20;;;;;;;25.46;45.01;100417.67;108255;1251;72576;-67
2023/09/24 00:31:39;;;;;;;23.40;14.10;;;;;;;25.59;44.72;100414.05;108296;1251;60750;-67
2023/09/24 00:34:05;;;;;;;25.10;15.10;;;;;;;25.27;45.19;100415.64;108129;1251;60225;-66
2023/09/24 00:36:35;;;;;;;22.20;12.50;;;;;;;25.38;45.05;100422.00;108298;1251;72629;-66
2023/09/24 00:39:02;;;;;;;31.20;14.10;;;;;;;25.08;45.80;100421.24;108311;1251;68777;-67
2023/09/24 00:41:29;;;;;;;19.80;13.40;;;;;;;25.10;46.30;100422.79;108276;1251;72692;-66
2023/09/24 00:43:57;;;;;;;20.10;13.70;;;;;;;25.18;46.28;100423.00;108276;1251;62282;-66
2023/09/24 00:46:25;;;;;;;20.20;14.00;;;;;;;25.31;45.96;100423.95;108304;1251;59256;-66
2023/09/24 00:48:52;;;;;;;26.70;14.10;;;;;;;25.34;45.81;100428.48;108291;1251;73761;-66
2023/09/24 00:51:22;;;;;;;27.20;13.50;;;;;;;25.33;45.59;100429.50;108296;1251;70222;-66
2023/09/24 00:53:51;;;;;;;22.90;13.70;;;;;;;25.34;45.79;100432.09;108223;1251;72533;-66
2023/09/24 00:56:18;;;;;;;24.30;13.10;;;;;;;25.14;46.36;100428.57;108326;1251;60841;-66
2023/09/24 00:58:47;;;;;;;27.50;14.60;;;;;;;25.26;45.98;100428.92;108205;1251;60415;-66
2023/09/24 01:01:14;;;;;;;21.80;13.30;;;;;;;25.26;46.16;100427.23;108123;1251;74310;-66
2023/09/24 01:03:41;;;;;;;26.70;13.80;;;;;;;25.36;46.12;100429.05;108251;1257;70164;-67
2023/09/24 01:06:08;;;;;;;27.70;14.00;;;;;;;25.43;46.09;100431.84;108245;1251;71758;-66
2023/09/24 01:08:35;;;;;;;20.80;13.40;;;;;;;25.48;45.98;100428.80;108345;1251;61855;-66
2023/09/24 01:11:03;;;;;;;25.40;14.40;;;;;;;25.45;45.78;100430.56;108267;1256;60379;-67
2023/09/24 01:13:40;;;;;;;35.20;14.70;;;;;;;25.40;45.85;100424.36;108340;1251;73775;-66
2023/09/24 01:16:08;;;;;;;24.70;13.60;;;;;;;25.46;45.85;100427.38;108338;1251;70229;-65
2023/09/24 01:18:39;;;;;;;29.50;15.30;;;;;;;25.51;45.68;100430.12;108182;1251;72512;-63
2023/09/24 01:21:11;;;;;;;;;;;;;;;25.58;45.69;100426.39;108384;1251;60505;-67
2023/09/24 01:23:38;;;;;;;22.20;14.10;;;;;;;25.72;45.37;100426.64;108271;1251;60283;-67
2023/09/24 01:26:05;;;;;;;30.00;15.60;;;;;;;25.83;45.17;100427.06;108274;1251;73012;-67
2023/09/24 01:28:32;;;;;;;25.50;14.90;;;;;;;25.77;45.21;100427.59;108337;1251;70370;-65
2023/09/24 01:30:58;;;;;;;31.50;15.20;;;;;;;25.83;45.18;100432.15;108245;1251;72681;-68
2023/09/24 01:33:25;;;;;;;21.30;13.00;;;;;;;25.78;45.16;100431.17;108259;1251;61843;-67
2023/09/24 01:35:52;;;;;;;21.10;13.40;;;;;;;25.68;45.40;100426.11;108267;1251;60401;-67
2023/09/24 01:38:19;;;;;;;27.60;13.80;;;;;;;25.56;45.67;100431.24;108294;1251;74436;-67
2023/09/24 01:40:46;;;;;;;28.20;13.90;;;;;;;25.71;45.43;100427.30;108288;1251;70355;-67
2023/09/24 01:43:14;;;;;;;24.30;14.00;;;;;;;25.75;45.17;100428.76;108257;1251;60621;-66
2023/09/24 01:45:41;;;;;;;24.00;14.40;;;;;;;25.67;45.23;100425.21;108249;1251;61857;-67
2023/09/24 01:48:07;;;;;;;22.60;13.50;;;;;;;25.73;45.03;100420.14;108277;1251;60514;-67
2023/09/24 01:50:36;;;;;;;23.10;13.70;;;;;;;25.77;44.85;100418.34;108286;1251;74504;-67
2023/09/24 01:53:04;;;;;;;22.40;13.40;;;;;;;25.52;45.13;100416.24;108288;1251;70531;-65
2023/09/24 01:55:31;;;;;;;20.70;13.50;;;;;;;25.61;44.98;100414.41;108346;1251;72312;-66
2023/09/24 01:58:01;;;;;;;20.50;13.20;;;;;;;25.69;44.58;100412.95;108297;1251;60422;-66
2023/09/24 02:00:28;;;;;;;15.80;9.00;;;;;;;25.70;44.44;100415.31;108216;1253;60382;-66
2023/09/24 02:02:59;;;;;;;26.40;13.20;;;;;;;25.50;44.72;100416.02;108286;1251;73964;-65
2023/09/24 02:05:35;;;;;;;25.90;12.90;;;;;;;25.72;44.44;100422.89;108278;1256;70301;-68
2023/09/24 02:08:06;;;;;;;18.70;12.10;;;;;;;25.71;44.24;100428.70;108308;1251;72648;-67
2023/09/24 02:10:40;;;;;;;26.40;13.40;;;;;;;25.69;44.20;100426.45;108251;1254;61798;-64
2023/09/24 02:13:08;;;;;;;20.20;12.70;;;;;;;25.54;44.17;100432.77;108277;1251;60312;-66
2023/09/24 02:15:34;;;;;;;24.70;12.90;;;;;;;25.46;44.42;100432.83;108342;1251;72359;-66
2023/09/24 02:18:04;;;;;;;26.60;13.60;;;;;;;25.44;44.38;100428.50;108285;1255;70097;-66
2023/09/24 02:23:04;;;;;;;26.50;14.50;;;;;;;25.38;44.26;100432.66;108368;1251;60430;-67
2023/09/24 02:25:32;;;;;;;18.80;11.50;;;;;;;25.35;44.36;100433.45;108264;1251;60252;-66
2023/09/24 02:27:59;;;;;;;21.40;13.10;;;;;;;25.31;44.37;100434.73;108303;1251;72665;-66
2023/09/24 02:30:28;;;;;;;22.50;12.70;;;;;;;25.28;44.38;100433.73;108280;1251;67826;-66
2023/09/24 02:32:59;;;;;;;18.20;11.80;;;;;;;25.15;44.50;100433.49;108311;1255;71110;-68
2023/09/24 02:35:26;;;;;;;21.50;14.20;;;;;;;24.95;44.90;100441.80;108282;1251;61830;-66
2023/09/24 02:37:53;;;;;;;22.40;13.40;;;;;;;25.02;44.73;100441.20;108245;1251;60420;-67
2023/09/24 02:40:23;;;;;;;17.60;12.30;;;;;;;25.02;44.72;100440.08;108224;1251;73787;-66
2023/09/24 02:42:53;;;;;;;23.10;14.50;;;;;;;25.05;44.66;100439.80;108340;1251;70323;-66
2023/09/24 02:45:20;;;;;;;26.20;14.00;;;;;;;24.85;44.85;100441.52;108353;1251;72163;-67
2023/09/24 02:47:49;;;;;;;23.60;14.30;;;;;;;24.77;45.13;100449.58;108210;1255;60730;-65
2023/09/24 02:50:24;;;;;;;13.60;9.70;;;;;;;24.70;45.47;100443.21;108373;1251;60305;-67
2023/09/24 02:53:02;;;;;;;20.20;12.90;;;;;;;24.57;45.89;100445.29;108311;1256;73957;-67
2023/09/24 02:55:29;;;;;;;24.10;13.40;;;;;;;24.69;46.00;100444.17;108233;1251;70468;-66
2023/09/24 02:57:56;;;;;;;24.60;13.30;;;;;;;24.85;45.53;100443.84;108210;1256;72483;-68
2023/09/24 03:00:33;;;;;;;20.90;12.50;;;;;;;24.81;45.56;100443.88;108202;1251;61707;-66
2023/09/24 03:03:00;;;;;;;25.80;12.90;;;;;;;25.05;44.99;100445.54;108034;1253;60345;-67
2023/09/24 03:05:28;;;;;;;20.50;12.60;;;;;;;25.15;44.75;100442.70;108243;1251;74432;-66
2023/09/24 03:07:56;;;;;;;23.90;13.80;;;;;;;25.13;44.59;100448.63;108323;1251;70132;-67
2023/09/24 03:10:23;;;;;;;19.10;12.70;;;;;;;24.96;44.71;100457.94;108307;1251;71477;-66
2023/09/24 03:12:50;;;;;;;27.60;14.80;;;;;;;24.80;45.02;100459.56;108240;1251;60396;-66
2023/09/24 03:15:17;;;;;;;29.60;14.30;;;;;;;24.65;45.14;100459.98;108275;1251;60456;-66
2023/09/24 03:17:46;;;;;;;23.90;13.20;;;;;;;24.77;44.93;100455.67;108177;1251;74270;-66
2023/09/24 03:20:19;;;;;;;18.20;13.60;;;;;;;24.77;44.99;100460.19;108224;1250;70239;-66
2023/09/24 03:22:54;;;;;;;24.10;13.00;;;;;;;24.73;45.02;100458.93;108201;1251;73172;-65
2023/09/24 03:25:22;;;;;;;21.70;13.70;;;;;;;24.74;45.06;100460.44;108157;1254;61903;-65
2023/09/24 03:27:50;;;;;;;17.80;11.90;;;;;;;24.69;45.14;100460.02;108225;1251;60364;-67
2023/09/24 03:30:17;;;;;;;24.10;13.30;;;;;;;24.53;45.48;100466.69;108284;1251;73723;-67
2023/09/24 03:32:48;;;;;;;23.70;13.10;;;;;;;24.33;45.78;100472.15;108263;1251;70354;-66
2023/09/24 03:35:17;;;;;;;27.40;13.80;;;;;;;24.09;46.17;100475.35;108300;1251;72580;-66
2023/09/24 03:37:45;;;;;;;20.70;12.80;;;;;;;24.27;45.88;100477.41;108252;1253;60386;-67
2023/09/24 03:40:15;;;;;;;20.80;11.40;;;;;;;24.11;46.24;100476.64;108267;1251;60197;-67
2023/09/24 03:42:41;;;;;;;21.30;12.20;;;;;;;23.90;46.73;100477.98;108252;1256;74266;-65
2023/09/24 03:45:10;;;;;;;21.00;11.80;;;;;;;23.86;46.82;100474.98;108255;1251;70798;-67
2023/09/24 03:47:38;;;;;;;19.40;11.80;;;;;;;23.78;47.03;100475.06;108254;1251;72541;-66
2023/09/24 03:50:06;;;;;;;20.70;11.10;;;;;;;23.74;47.33;100483.15;108297;1251;62253;-67
2023/09/24 03:52:33;;;;;;;21.10;10.30;;;;;;;23.86;47.12;100480.30;108313;1251;60472;-66
2023/09/24 03:55:00;;;;;;;21.90;10.50;;;;;;;23.87;47.06;100484.73;108322;1255;74405;-67
2023/09/24 03:57:30;;;;;;;23.90;9.80;;;;;;;23.91;46.79;100489.73;108230;1251;70378;-67
2023/09/24 03:59:59;;;;;;;15.50;9.50;;;;;;;24.05;46.31;100495.09;108193;1256;73000;-68
2023/09/24 04:02:29;;;;;;;21.00;10.50;;;;;;;24.17;45.94;100500.57;108220;1251;61659;-67
2023/09/24 04:04:56;;;;;;;18.60;8.90;;;;;;;24.21;45.62;100505.38;108266;1252;60428;-68
2023/09/24 04:07:22;;;;;;;19.40;10.60;;;;;;;24.14;45.42;100510.19;108241;1251;72877;-66
2023/09/24 04:09:50;;;;;;;18.40;9.30;;;;;;;24.30;45.06;100506.34;108262;1251;60442;-67
2023/09/24 04:12:16;;;;;;;18.30;8.90;;;;;;;24.33;44.65;100503.06;108294;1251;72439;-67
2023/09/24 04:14:43;;;;;;;19.70;8.50;;;;;;;24.39;44.45;100503.98;108257;1251;61789;-65
2023/09/24 04:17:10;;;;;;;17.80;9.30;;;;;;;24.43;44.27;100506.86;108244;1251;60446;-67
2023/09/24 04:19:36;;;;;;;20.60;8.90;;;;;;;24.69;43.94;100506.65;108215;1251;74005;-67
2023/09/24 04:22:04;;;;;;;21.00;9.10;;;;;;;24.92;43.36;100508.19;108312;1251;70666;-65
2023/09/24 04:24:30;;;;;;;25.70;9.10;;;;;;;25.18;42.58;100508.89;108219;1255;72711;-64
2023/09/24 04:26:57;;;;;;;14.50;8.10;;;;;;;25.36;42.23;100514.08;108214;1251;62027;-66
2023/09/24 04:29:24;;;;;;;11.50;7.70;;;;;;;25.70;41.61;100513.20;108225;1253;60429;-65
2023/09/24 04:31:51;;;;;;;14.40;7.70;;;;;;;26.09;40.67;100517.83;108260;1251;74481;-67
2023/09/24 04:34:19;;;;;;;21.60;9.00;;;;;;;26.23;40.47;100518.63;108223;1251;69853;-67
2023/09/24 04:36:46;;;;;;;17.60;7.80;;;;;;;26.37;40.11;100523.13;108231;1251;73131;-67
2023/09/24 04:39:13;;;;;;;16.90;7.70;;;;;;;26.70;39.63;100526.45;108249;1251;60439;-68
2023/09/24 04:41:44;;;;;;;13.00;7.40;;;;;;;26.99;39.09;100528.99;108250;1251;59968;-66
2023/09/24 04:46:30;;;;;;;14.70;8.00;;;;;;;24.92;42.65;100542.33;104738;1292;600907;-67
2023/09/24 04:48:56;;;;;;;14.30;8.20;;;;;;;26.34;40.32;100541.84;107311;1264;59235;-66
2023/09/24 04:51:23;;;;;;;15.90;7.90;;;;;;;26.72;39.79;100543.52;107962;1256;58940;-68
2023/09/24 04:53:50;;;;;;;12.40;7.40;;;;;;;27.08;39.26;100546.45;107946;1259;59110;-68
2023/09/24 04:56:16;;;;;;;11.20;7.50;;;;;;;27.45;38.46;100543.80;107936;1255;70081;-66
2023/09/24 04:58:43;;;;;;;19.10;8.50;;;;;;;27.54;38.26;100548.20;107773;1253;168612;-67
2023/09/24 05:01:09;;;;;;;13.90;7.00;;;;;;;27.75;37.47;100551.27;108067;1253;61663;-67
2023/09/24 05:03:37;;;;;;;9.20;6.40;;;;;;;28.05;37.13;100555.23;108121;1253;60142;-66
2023/09/24 05:06:07;;;;;;;13.10;7.00;;;;;;;28.42;36.91;100561.45;108068;1253;72079;-68
2023/09/24 05:08:34;;;;;;;17.20;7.30;;;;;;;28.66;35.91;100565.40;108084;1253;70024;-68
2023/09/24 05:11:02;;;;;;;14.80;7.60;;;;;;;28.92;35.79;100568.40;108046;1253;72709;-66
2023/09/24 05:13:30;;;;;;;15.40;7.60;;;;;;;29.15;35.01;100573.80;108050;1253;60404;-66
2023/09/24 05:16:00;;;;;;;15.70;7.00;;;;;;;29.36;35.03;100580.09;108104;1253;59640;-67
2023/09/24 05:18:27;;;;;;;18.20;7.10;;;;;;;29.89;34.73;100584.24;108090;1253;72817;-67
2023/09/24 05:20:54;;;;;;;14.50;7.20;;;;;;;30.32;33.33;100583.55;108081;1253;70322;-67
2023/09/24 05:23:21;;;;;;;14.10;6.30;;;;;;;30.43;33.12;100588.88;108083;1253;71424;-68
2023/09/24 05:25:51;;;;;;;17.30;7.10;;;;;;;30.59;32.66;100590.08;108098;1253;60617;-67
2023/09/24 05:28:18;;;;;;;8.90;6.20;;;;;;;30.80;32.58;100589.95;108070;1254;60067;-67
2023/09/24 05:30:54;;;;;;;14.80;7.00;;;;;;;31.08;32.30;100588.70;108065;1254;73120;-67
2023/09/24 05:33:21;;;;;;;14.20;6.80;;;;;;;31.28;31.66;100595.27;108044;1254;70292;-67
2023/09/24 05:35:52;;;;;;;15.40;6.90;;;;;;;31.42;31.28;100587.98;108015;1254;72489;-68
2023/09/24 05:38:19;;;;;;;12.40;7.00;;;;;;;31.52;31.35;100594.51;108096;1254;59624;-68
2023/09/24 05:40:46;;;;;;;16.90;7.00;;;;;;;31.60;31.08;100592.01;108091;1254;59180;-68
2023/09/24 05:43:12;;;;;;;14.50;6.20;;;;;;;31.58;31.28;100595.14;108046;1254;73050;-66
2023/09/24 05:45:46;;;;;;;14.70;6.40;;;;;;;31.65;31.08;100588.36;108098;1254;70324;-67
2023/09/24 05:48:14;;;;;;;13.50;6.70;;;;;;;31.85;30.76;100586.77;108062;1254;72956;-68
2023/09/24 05:50:42;;;;;;;14.90;7.20;;;;;;;32.12;30.53;100578.66;107998;1254;60083;-68
2023/09/24 05:53:11;;;;;;;16.50;6.80;;;;;;;32.40;30.38;100577.46;108065;1259;59568;-67
2023/09/24 05:55:37;;;;;;;13.80;5.90;;;;;;;32.63;30.20;100578.27;108035;1255;72966;-67
2023/09/24 05:58:05;;;;;;;13.80;6.60;;;;;;;32.95;29.78;100581.25;107879;1254;69999;-68
2023/09/24 06:00:35;;;;;;;12.20;6.30;;;;;;;33.44;29.41;100584.86;108005;1254;64041;-68
2023/09/24 06:03:02;;;;;;;17.70;6.60;;;;;;;33.84;28.72;100588.67;107928;1254;59533;-68
2023/09/24 06:05:29;;;;;;;19.00;6.30;;;;;;;33.92;28.77;100588.35;108008;1254;60623;-66
2023/09/24 06:07:56;;;;;;;13.10;6.20;;;;;;;34.05;28.21;100580.59;108312;1253;64429;-66
2023/09/24 06:10:23;;;;;;;11.90;6.70;;;;;;;34.06;28.36;100582.08;108247;1253;61382;-68
2023/09/24 06:12:49;;;;;;;10.20;6.20;;;;;;;34.28;28.25;100582.27;108266;1253;62780;-69
2023/09/24 06:15:17;;;;;;;11.70;6.00;;;;;;;34.63;27.69;100579.90;108283;1252;60435;-68
2023/09/24 06:17:44;;;;;;;11.80;5.60;;;;;;;34.97;27.40;100581.76;108282;1253;59735;-66
2023/09/24 06:20:12;;;;;;;21.30;6.50;;;;;;;35.10;27.19;100585.99;108286;1253;64218;-67
2023/09/24 06:22:40;;;;;;;13.80;6.40;;;;;;;35.15;27.02;100584.10;108175;1253;60379;-69
2023/09/24 06:25:07;;;;;;;10.60;6.30;;;;;;;35.52;26.81;100585.48;108273;1252;63839;-69
2023/09/24 06:27:34;;;;;;;17.50;6.80;;;;;;;35.65;26.62;100585.88;108129;1253;59506;-68
2023/09/24 06:30:04;;;;;;;12.30;6.20;;;;;;;35.64;26.45;100591.70;108079;1253;59522;-68
2023/09/24 06:32:32;;;;;;;13.10;5.80;;;;;;;35.57;26.61;100596.04;108057;1253;64855;-68
2023/09/24 06:34:59;;;;;;;21.80;8.00;;;;;;;35.64;26.43;100599.24;108041;1253;60407;-68
2023/09/24 06:37:25;;;;;;;14.60;6.60;;;;;;;35.76;26.40;100605.41;108058;1253;64289;-69
2023/09/24 06:39:52;;;;;;;20.30;6.30;;;;;;;35.87;26.31;100602.49;108091;1253;58992;-68
2023/09/24 06:42:18;;;;;;;22.80;6.70;;;;;;;36.24;25.68;100597.15;108086;1253;59648;-68
2023/09/24 06:44:45;;;;;;;18.80;6.10;;;;;;;36.28;25.43;100594.20;108107;1253;59093;-69
2023/09/24 06:47:12;;;;;;;15.20;6.50;;;;;;;36.19;25.55;100593.63;108055;1253;60411;-68
2023/09/24 06:49:38;;;;;;;15.10;6.50;;;;;;;36.20;25.62;100598.82;108044;1257;62864;-68
2023/09/24 06:52:05;;;;;;;11.90;6.50;;;;;;;36.36;25.57;100597.98;108075;1253;59346;-67
2023/09/24 06:54:32;;;;;;;19.90;6.40;;;;;;;36.58;25.43;100597.33;108153;1253;59415;-68
2023/09/24 06:56:59;;;;;;;15.40;6.50;;;;;;;37.03;24.93;100594.28;108085;1253;64504;-69
2023/09/24 06:59:26;;;;;;;15.80;6.50;;;;;;;37.05;24.79;100592.02;108229;1253;61642;-68
2023/09/24 07:01:55;;;;;;;16.80;7.30;;;;;;;37.05;24.81;100590.35;108253;1253;62828;-67
2023/09/24 07:04:22;;;;;;;13.70;7.20;;;;;;;37.12;24.75;100592.34;108302;1252;59545;-67
2023/09/24 07:06:50;;;;;;;18.60;6.20;;;;;;;37.31;24.58;100589.95;108166;1253;59612;-68
2023/09/24 07:09:18;;;;;;;16.40;5.70;;;;;;;37.53;24.09;100590.16;108235;1253;64915;-68
2023/09/24 07:11:45;;;;;;;25.20;7.00;;;;;;;37.62;23.74;100585.09;108107;1252;61050;-69
2023/09/24 07:14:12;;;;;;;17.90;6.40;;;;;;;37.75;23.72;100583.20;108199;1253;63913;-67
2023/09/24 07:16:38;;;;;;;15.00;5.80;;;;;;;38.04;23.65;100580.06;108153;1256;58464;-67
2023/09/24 07:19:05;;;;;;;8.80;5.70;;;;;;;38.54;23.45;100580.71;108163;1253;59586;-68
2023/09/24 07:21:33;;;;;;;11.80;5.80;;;;;;;39.15;22.77;100581.02;108189;1252;59189;-69
2023/09/24 07:24:03;;;;;;;14.10;6.70;;;;;;;39.55;22.17;100586.93;108171;1251;70317;-69
2023/09/24 07:26:30;;;;;;;11.10;5.10;;;;;;;39.93;21.86;100590.02;108182;1251;64094;-70
2023/09/24 07:28:57;;;;;;;15.10;5.60;;;;;;;40.26;21.31;100594.61;108182;1251;58996;-69
2023/09/24 07:31:25;;;;;;;12.60;5.80;;;;;;;40.64;21.00;100594.17;108259;1251;59154;-68
2023/09/24 07:33:57;;;;;;;15.10;5.50;;;;;;;40.44;21.27;100588.61;108241;1251;63187;-67
2023/09/24 07:36:24;;;;;;;18.10;5.80;;;;;;;40.19;21.15;100586.17;108337;1251;60399;-68
2023/09/24 07:38:53;;;;;;;11.50;5.40;;;;;;;40.67;20.50;100590.81;108295;1251;63823;-67
2023/09/24 07:41:21;;;;;;;14.40;5.30;;;;;;;40.70;20.65;100598.50;108315;1251;59983;-66
2023/09/24 07:43:47;;;;;;;10.10;5.30;;;;;;;40.86;20.67;100603.61;108223;1251;59503;-68
2023/09/24 07:46:15;;;;;;;11.10;5.10;;;;;;;40.89;20.27;100602.42;108342;1256;64441;-68
2023/09/24 07:48:46;;;;;;;11.50;5.70;;;;;;;41.02;20.13;100605.59;108214;1251;70956;-69
2023/09/24 07:51:16;;;;;;;13.30;5.40;;;;;;;41.02;20.18;100601.95;108223;1251;63774;-69
2023/09/24 07:53:46;;;;;;;13.50;5.00;;;;;;;40.91;20.38;100600.02;108213;1251;59642;-68
2023/09/24 07:56:14;;;;;;;16.30;5.50;;;;;;;40.78;20.55;100600.16;108230;1251;60162;-68
2023/09/24 07:58:40;;;;;;;9.30;5.30;;;;;;;40.84;20.23;100600.66;108321;1251;62890;-69
2023/09/24 08:01:08;;;;;;;14.80;5.90;;;;;;;40.88;20.39;100591.02;108329;1251;60349;-68
2023/09/24 08:03:36;;;;;;;14.10;5.20;;;;;;;41.01;20.36;100586.58;108235;1251;64032;-68
2023/09/24 08:06:03;;;;;;;10.60;5.50;;;;;;;41.18;20.41;100575.79;108272;1251;59584;-69
2023/09/24 08:08:30;;;;;;;13.60;5.20;;;;;;;41.78;19.83;100571.63;108233;1251;59682;-69
2023/09/24 08:11:16;;;;;;;14.40;5.20;;;;;;;41.94;19.34;100571.67;108336;1251;64278;-69
2023/09/24 08:13:43;;;;;;;12.40;5.60;;;;;;;41.88;19.48;100572.41;108326;1251;59522;-70
2023/09/24 08:16:11;;;;;;;20.30;4.90;;;;;;;41.65;19.77;100575.25;108283;1251;63821;-69
2023/09/24 08:18:38;;;;;;;12.50;5.30;;;;;;;41.94;19.68;100580.45;108221;1251;59247;-67
2023/09/24 08:21:06;;;;;;;13.30;5.40;;;;;;;42.24;19.27;100579.41;108307;1255;59500;-69
2023/09/24 08:23:33;;;;;;;11.20;5.40;;;;;;;42.09;19.31;100581.40;108244;1251;64263;-69
2023/09/24 08:26:00;;;;;;;17.70;5.40;;;;;;;41.88;19.62;100584.20;108283;1252;60307;-69
2023/09/24 08:28:26;;;;;;;13.90;5.50;;;;;;;41.88;19.84;100588.11;108131;1252;64168;-69
2023/09/24 08:30:53;;;;;;;12.20;5.20;;;;;;;41.82;19.75;100584.04;108182;1253;59485;-69
2023/09/24 08:33:20;;;;;;;18.00;5.50;;;;;;;41.93;19.88;100578.24;108261;1253;59436;-69
2023/09/24 08:35:47;;;;;;;13.50;5.30;;;;;;;41.88;19.91;100575.56;108244;1253;64380;-67
2023/09/24 08:38:14;;;;;;;16.70;6.10;;;;;;;42.01;19.71;100568.02;108172;1253;61820;-69
2023/09/24 08:40:40;;;;;;;15.10;6.00;;;;;;;41.93;19.86;100561.64;108191;1252;62425;-69
2023/09/24 08:43:09;;;;;;;14.80;6.10;;;;;;;41.83;20.19;100563.30;108091;1253;59603;-68
2023/09/24 08:45:37;;;;;;;14.30;5.60;;;;;;;41.89;20.26;100566.02;108162;1253;59612;-68
2023/09/24 08:48:07;;;;;;;14.00;5.30;;;;;;;41.73;20.34;100563.36;108188;1253;64493;-69
2023/09/24 08:50:38;;;;;;;10.00;5.40;;;;;;;41.73;20.39;100565.36;108231;1252;60211;-69
2023/09/24 08:53:11;;;;;;;9.50;5.40;;;;;;;41.75;20.21;100569.98;108221;1253;64084;-69
2023/09/24 08:55:41;;;;;;;9.90;5.00;;;;;;;41.27;20.52;100568.37;108206;1252;60458;-68
2023/09/24 08:58:07;;;;;;;11.50;4.60;;;;;;;40.90;21.18;100569.45;108202;1252;60415;-69
2023/09/24 09:00:34;;;;;;;15.00;5.60;;;;;;;41.25;20.76;100567.30;108202;1253;65163;-68
2023/09/24 09:03:01;;;;;;;14.90;5.30;;;;;;;41.76;20.15;100574.41;108185;1253;61580;-68
2023/09/24 09:05:29;;;;;;;12.90;4.90;;;;;;;42.08;19.92;100579.45;108144;1253;64040;-68
2023/09/24 09:07:56;;;;;;;14.20;4.30;;;;;;;42.19;19.79;100577.34;108079;1253;60373;-70
2023/09/24 09:10:25;;;;;;;13.70;4.20;;;;;;;41.83;19.74;100579.19;108158;1252;60269;-69
2023/09/24 09:13:04;;;;;;;12.10;4.10;;;;;;;41.70;19.87;100576.83;108275;1252;65146;-70
2023/09/24 09:15:34;;;;;;;14.40;4.60;;;;;;;41.82;19.61;100574.58;108218;1253;61514;-69
2023/09/24 09:18:02;;;;;;;10.20;4.10;;;;;;;41.80;19.78;100576.53;108229;1253;65289;-69
2023/09/24 09:20:43;;;;;;;11.50;4.20;;;;;;;42.03;19.74;100576.06;108189;1253;60344;-68
2023/09/24 09:23:12;;;;;;;12.90;3.90;;;;;;;42.40;19.24;100582.16;108170;1252;59830;-69
2023/09/24 09:25:46;;;;;;;10.80;3.90;;;;;;;42.41;19.04;100589.55;108139;1252;65062;-69
2023/09/24 09:28:23;;;;;;;12.10;3.70;;;;;;;41.49;19.60;100585.60;108289;1251;61721;-69
2023/09/24 09:31:09;;;;;;;9.40;3.60;;;;;;;40.84;20.13;100587.27;108255;1256;63850;-68
2023/09/24 09:33:37;;;;;;;9.10;3.40;;;;;;;40.53;20.52;100587.46;108320;1251;60422;-70
2023/09/24 09:36:04;;;;;;;8.40;3.60;;;;;;;40.54;20.33;100587.61;108311;1251;59697;-68
2023/09/24 09:38:31;;;;;;;13.60;3.90;;;;;;;40.37;20.51;100590.32;108256;1251;65083;-68
2023/09/24 09:40:58;;;;;;;14.10;4.50;;;;;;;40.65;20.35;100585.86;108246;1251;61453;-69
2023/09/24 09:43:29;;;;;;;11.20;3.80;;;;;;;40.97;20.06;100582.67;108233;1251;64114;-68
2023/09/24 09:45:57;;;;;;;13.30;3.70;;;;;;;40.87;19.83;100585.33;108203;1251;60293;-69
2023/09/24 09:48:31;;;;;;;11.30;3.30;;;;;;;41.23;19.62;100584.17;108233;1251;60441;-69
2023/09/24 09:51:02;;;;;;;9.80;3.90;;;;;;;41.37;19.38;100585.48;108205;1251;65163;-69
2023/09/24 09:53:34;;;;;;;13.20;3.70;;;;;;;41.24;19.54;100588.23;108150;1251;61624;-68
2023/09/24 09:56:06;;;;;;;22.60;4.00;;;;;;;40.86;19.75;100581.70;108349;1251;63908;-69
2023/09/24 09:58:34;;;;;;;13.50;3.30;;;;;;;40.51;20.13;100583.75;108267;1251;60176;-69
2023/09/24 10:01:01;;;;;;;10.30;4.00;;;;;;;40.50;20.36;100586.46;108279;1251;60511;-68
2023/09/24 10:03:28;;;;;;;8.60;4.10;;;;;;;40.45;20.27;100588.08;108267;1251;65201;-69
2023/09/24 10:05:55;;;;;;;16.20;3.80;;;;;;;40.74;20.32;100588.30;108232;1251;61590;-69
2023/09/24 10:08:42;;;;;;;9.50;4.10;;;;;;;41.17;19.52;100585.89;108223;1251;63841;-68
2023/09/24 10:11:10;;;;;;;14.30;3.80;;;;;;;41.52;19.31;100583.54;108252;1251;59499;-68
2023/09/24 10:13:44;;;;;;;11.10;3.80;;;;;;;41.69;18.73;100589.70;108259;1251;60218;-68
2023/09/24 10:16:32;;;;;;;15.00;4.50;;;;;;;41.11;19.33;100594.27;108275;1255;63633;-69
2023/09/24 10:19:12;;;;;;;10.00;4.00;;;;;;;40.47;19.69;100598.70;108245;1251;61497;-69
2023/09/24 10:21:43;;;;;;;12.80;3.70;;;;;;;40.17;19.86;100596.50;108261;1251;64161;-70
2023/09/24 10:24:13;;;;;;;12.40;4.50;;;;;;;40.28;20.01;100593.23;108262;1251;60203;-69
2023/09/24 10:26:54;;;;;;;19.10;3.90;;;;;;;40.23;20.13;100589.79;108254;1252;60312;-69
2023/09/24 10:29:44;;;;;;;10.30;4.10;;;;;;;39.82;20.64;100594.67;108171;1255;64987;-68
2023/09/24 10:32:11;;;;;;;6.70;3.90;;;;;;;39.68;20.63;100591.08;108180;1253;60332;-68
2023/09/24 10:34:54;;;;;;;9.30;3.80;;;;;;;40.09;20.22;100593.50;108155;1253;63912;-69
2023/09/24 10:37:30;;;;;;;6.30;3.40;;;;;;;40.24;19.94;100588.98;108163;1253;61207;-69
2023/09/24 10:42:28;;;;;;;8.70;3.90;;;;;;;41.12;19.21;100585.96;108172;1253;65267;-68
2023/09/24 10:45:07;;;;;;;13.40;3.40;;;;;;;40.89;18.73;100588.48;108186;1252;60168;-68
2023/09/24 10:47:36;;;;;;;18.00;3.70;;;;;;;40.34;19.12;100592.13;108187;1253;63845;-68
2023/09/24 10:50:07;;;;;;;13.70;3.60;;;;;;;40.25;18.90;100589.02;108162;1253;60414;-69
2023/09/24 10:52:53;;;;;;;17.20;4.80;;;;;;;40.10;19.30;100592.81;108173;1253;60342;-69
2023/09/24 10:55:29;;;;;;;11.10;3.80;;;;;;;39.94;19.19;100594.74;108153;1252;65039;-69
2023/09/24 10:57:57;;;;;;;17.20;4.10;;;;;;;39.85;18.91;100589.91;108157;1253;61502;-69
2023/09/24 11:00:27;;;;;;;15.00;3.70;;;;;;;39.75;19.30;100585.58;108259;1252;62607;-69
2023/09/24 11:02:55;;;;;;;11.50;3.90;;;;;;;39.54;19.31;100580.07;108178;1255;58957;-68
2023/09/24 11:05:21;;;;;;;9.50;3.40;;;;;;;39.48;19.35;100586.75;108135;1254;60310;-69
2023/09/24 11:07:48;;;;;;;6.50;3.30;;;;;;;39.60;19.08;100586.14;108229;1253;60355;-68
2023/09/24 11:10:18;;;;;;;10.40;3.70;;;;;;;39.63;19.06;100584.77;108041;1254;61371;-68
2023/09/24 11:12:52;;;;;;;11.80;3.60;;;;;;;39.86;19.01;100580.39;108226;1253;63888;-69
2023/09/24 11:15:20;;;;;;;11.40;3.60;;;;;;;40.13;18.71;100575.54;108146;1253;60435;-68
2023/09/24 11:17:46;;;;;;;13.40;3.10;;;;;;;40.23;18.37;100579.63;108245;1252;60418;-66
2023/09/24 11:20:17;;;;;;;11.00;3.40;;;;;;;39.70;18.40;100583.34;108190;1252;65288;-68
2023/09/24 11:22:44;;;;;;;7.90;3.50;;;;;;;39.37;18.88;100585.43;108214;1253;61553;-69